Time;durP1;ratioP1;P1;durP2;ratioP2;P2;SDS_P1;SDS_P2;PMS_P1;PMS_P2;Temp;Humidity;BMP_temperature;BMP_pressure;BME280_temperature;BME280_humidity;BME280_pressure;Samples;Min_cycle;Max_cycle;Signal;HPM_P1;HPM_P2
2022/02/27 00:02:16;;;;;;;8.45;4.40;;;;;;;;;;5960093;29;20518;-71
2022/02/27 00:05:20;;;;;;;10.02;4.82;;;;;;;;;;5960954;29;20525;-74
2022/02/27 00:08:24;;;;;;;12.50;5.35;;;;;;;;;;5961492;29;20054;-72
2022/02/27 00:11:29;;;;;;;14.00;5.07;;;;;;;;;;5959229;29;20555;-73
2022/02/27 00:14:35;;;;;;;;;;;;;;;;;;5957398;29;20051;-73
2022/02/27 00:17:43;;;;;;;12.27;4.95;;;;;;;;;;5959028;29;20540;-73
2022/02/27 00:20:53;;;;;;;12.55;4.88;;;;;;;;;;5957681;29;20522;-72
2022/02/27 00:23:57;;;;;;;11.13;4.63;;;;;;;;;;5959435;29;20047;-72
2022/02/27 00:27:00;;;;;;;11.95;5.72;;;;;;;;;;5959475;29;20403;-72
2022/02/27 00:30:07;;;;;;;12.18;4.93;;;;;;;;;;5945499;29;20270;-71
2022/02/27 00:33:10;;;;;;;13.48;5.30;;;;;;;;;;5957744;29;20050;-72
2022/02/27 00:36:15;;;;;;;11.52;4.85;;;;;;;;;;5956263;29;20199;-72
2022/02/27 00:39:19;;;;;;;12.85;5.57;;;;;;;;;;5955862;29;20530;-73
2022/02/27 00:42:22;;;;;;;12.63;6.07;;;;;;;;;;5955264;29;20427;-73
2022/02/27 00:45:27;;;;;;;14.10;6.30;;;;;;;;;;5957242;29;20050;-73
2022/02/27 00:48:30;;;;;;;13.65;5.25;;;;;;;;;;5962799;29;20055;-72
2022/02/27 00:51:35;;;;;;;14.35;5.65;;;;;;;;;;5963874;29;20051;-73
2022/02/27 00:54:39;;;;;;;12.33;5.73;;;;;;;;;;5964196;29;20055;-73
2022/02/27 00:57:42;;;;;;;11.23;5.07;;;;;;;;;;5963439;29;20054;-73
2022/02/27 01:00:45;;;;;;;13.48;6.00;;;;;;;;;;5964130;29;20356;-73
2022/02/27 01:03:48;;;;;;;16.83;6.82;;;;;;;;;;5964918;29;20054;-73
2022/02/27 01:06:55;;;;;;;11.60;5.72;;;;;;;;;;5962517;29;20529;-73
2022/02/27 01:09:58;;;;;;;14.82;6.53;;;;;;;;;;5963892;29;20051;-73
2022/02/27 01:13:06;;;;;;;14.60;5.80;;;;;;;;;;5963912;29;20047;-73
2022/02/27 01:16:09;;;;;;;13.63;5.40;;;;;;;;;;5963861;29;20061;-73
2022/02/27 01:19:12;;;;;;;15.80;6.53;;;;;;;;;;5963548;29;20135;-73
2022/02/27 01:22:20;;;;;;;13.23;5.78;;;;;;;;;;5964929;29;20218;-74
2022/02/27 01:25:25;;;;;;;17.25;6.93;;;;;;;;;;5963025;29;20061;-74
2022/02/27 01:28:28;;;;;;;14.80;6.60;;;;;;;;;;5962387;29;20442;-74
2022/02/27 01:31:32;;;;;;;15.27;6.47;;;;;;;;;;5963305;29;20051;-74
2022/02/27 01:34:35;;;;;;;16.23;6.53;;;;;;;;;;5964560;29;20055;-74
2022/02/27 01:37:40;;;;;;;13.38;5.97;;;;;;;;;;5962036;29;20055;-74
2022/02/27 01:40:45;;;;;;;14.63;7.70;;;;;;;;;;5962768;29;20073;-73
2022/02/27 01:43:51;;;;;;;14.00;7.07;;;;;;;;;;5963336;29;20054;-74
2022/02/27 01:46:58;;;;;;;14.90;7.05;;;;;;;;;;5962456;29;20059;-73
2022/02/27 01:50:04;;;;;;;18.33;6.65;;;;;;;;;;5961874;29;20413;-74
2022/02/27 01:53:09;;;;;;;13.02;6.53;;;;;;;;;;5963135;29;20070;-74
2022/02/27 01:56:13;;;;;;;15.23;6.82;;;;;;;;;;5963747;29;20554;-74
2022/02/27 01:59:20;;;;;;;20.73;7.70;;;;;;;;;;5961601;29;20054;-74
2022/02/27 02:02:23;;;;;;;16.27;6.80;;;;;;;;;;5963650;29;20546;-73
2022/02/27 02:05:29;;;;;;;16.73;7.32;;;;;;;;;;5962761;29;20061;-74
2022/02/27 02:08:33;;;;;;;15.15;6.68;;;;;;;;;;5963428;29;20101;-75
2022/02/27 02:11:40;;;;;;;14.98;7.32;;;;;;;;;;5961542;29;20062;-74
2022/02/27 02:14:43;;;;;;;16.02;7.05;;;;;;;;;;5962517;29;20453;-74
2022/02/27 02:17:47;;;;;;;15.73;7.05;;;;;;;;;;5962423;29;20456;-74
2022/02/27 02:20:51;;;;;;;15.48;6.32;;;;;;;;;;5961075;29;20051;-74
2022/02/27 02:23:57;;;;;;;15.50;6.68;;;;;;;;;;5962178;29;20046;-75
2022/02/27 02:27:00;;;;;;;15.35;6.80;;;;;;;;;;5962268;29;20522;-74
2022/02/27 02:30:09;;;;;;;16.92;7.03;;;;;;;;;;5961419;29;20054;-74
2022/02/27 02:33:14;;;;;;;14.60;6.70;;;;;;;;;;5960974;29;20078;-74
2022/02/27 02:36:19;;;;;;;15.82;6.80;;;;;;;;;;5961112;29;20517;-74
2022/02/27 02:39:23;;;;;;;15.35;6.88;;;;;;;;;;5959317;29;20517;-74
2022/02/27 02:42:32;;;;;;;16.95;6.57;;;;;;;;;;5957993;29;20054;-74
2022/02/27 02:45:35;;;;;;;16.92;6.93;;;;;;;;;;5959152;29;20057;-73
2022/02/27 02:48:41;;;;;;;14.30;6.68;;;;;;;;;;5959663;29;20821;-74
2022/02/27 02:52:02;;;;;;;15.02;6.30;;;;;;;;;;5960127;29;20139;-75
2022/02/27 02:55:07;;;;;;;14.85;6.00;;;;;;;;;;5960478;29;20054;-75
2022/02/27 02:58:10;;;;;;;15.48;7.20;;;;;;;;;;5961686;29;20055;-74
2022/02/27 03:01:15;;;;;;;13.95;7.15;;;;;;;;;;5961497;29;20126;-74
2022/02/27 03:04:20;;;;;;;16.25;6.72;;;;;;;;;;5960092;29;20058;-74
2022/02/27 03:07:29;;;;;;;14.77;7.45;;;;;;;;;;5960207;29;20059;-75
2022/02/27 03:10:32;;;;;;;14.63;6.43;;;;;;;;;;5961347;29;20495;-74
2022/02/27 03:13:38;;;;;;;15.20;6.82;;;;;;;;;;5960933;29;20058;-74
2022/02/27 03:16:44;;;;;;;15.43;7.18;;;;;;;;;;5959962;29;20143;-74
2022/02/27 03:19:47;;;;;;;19.55;6.90;;;;;;;;;;5959413;29;20545;-74
2022/02/27 03:22:53;;;;;;;16.67;6.97;;;;;;;;;;5961074;29;20856;-74
2022/02/27 03:25:56;;;;;;;15.93;6.50;;;;;;;;;;5960753;29;20505;-73
2022/02/27 03:28:59;;;;;;;17.55;6.80;;;;;;;;;;5960376;29;20406;-74
2022/02/27 03:32:03;;;;;;;15.68;6.53;;;;;;;;;;5960973;29;20055;-74
2022/02/27 03:35:09;;;;;;;14.40;6.50;;;;;;;;;;5959930;29;20500;-74
2022/02/27 03:38:14;;;;;;;15.25;6.90;;;;;;;;;;5959158;29;20053;-74
2022/02/27 03:41:19;;;;;;;14.93;6.50;;;;;;;;;;5958425;29;20055;-74
2022/02/27 03:44:25;;;;;;;13.85;6.25;;;;;;;;;;5959290;29;20054;-74
2022/02/27 03:47:28;;;;;;;14.57;6.35;;;;;;;;;;5956789;29;20130;-74
2022/02/27 03:50:32;;;;;;;13.00;6.18;;;;;;;;;;5958292;29;20062;-74
2022/02/27 03:53:40;;;;;;;15.63;6.55;;;;;;;;;;5959735;29;20517;-74
2022/02/27 03:56:43;;;;;;;17.15;7.50;;;;;;;;;;5960795;29;20046;-74
2022/02/27 03:59:46;;;;;;;12.45;6.47;;;;;;;;;;5959348;29;20051;-73
2022/02/27 04:02:52;;;;;;;14.23;6.10;;;;;;;;;;5960280;29;20570;-74
2022/02/27 04:05:59;;;;;;;14.13;5.90;;;;;;;;;;5960060;29;20521;-74
2022/02/27 04:09:05;;;;;;;12.82;5.88;;;;;;;;;;5958860;29;20054;-74
2022/02/27 04:12:08;;;;;;;15.48;6.13;;;;;;;;;;5961299;29;20107;-74
2022/02/27 04:15:13;;;;;;;18.45;6.45;;;;;;;;;;5960619;29;20054;-74
2022/02/27 04:18:16;;;;;;;12.98;6.13;;;;;;;;;;5958811;29;20176;-74
2022/02/27 04:21:19;;;;;;;18.60;6.38;;;;;;;;;;5960820;29;20461;-74
2022/02/27 04:24:24;;;;;;;13.02;6.22;;;;;;;;;;5959944;29;20121;-74
2022/02/27 04:27:29;;;;;;;13.75;6.07;;;;;;;;;;5961220;29;20054;-74
2022/02/27 04:30:33;;;;;;;12.10;6.07;;;;;;;;;;5959868;29;20133;-73
2022/02/27 04:33:36;;;;;;;14.55;6.60;;;;;;;;;;5959827;29;20047;-73
2022/02/27 04:36:41;;;;;;;12.40;5.70;;;;;;;;;;5961294;29;20507;-73
2022/02/27 04:39:46;;;;;;;12.82;5.90;;;;;;;;;;5958553;29;20277;-73
2022/02/27 04:42:50;;;;;;;14.55;5.80;;;;;;;;;;5959325;29;20419;-74
2022/02/27 04:45:55;;;;;;;14.43;5.47;;;;;;;;;;5959900;29;20552;-74
2022/02/27 04:48:58;;;;;;;12.32;5.38;;;;;;;;;;5959370;29;20397;-74
2022/02/27 04:52:01;;;;;;;14.60;5.72;;;;;;;;;;5959803;29;20047;-74
2022/02/27 04:55:07;;;;;;;11.57;5.63;;;;;;;;;;5960987;29;20057;-74
2022/02/27 04:58:10;;;;;;;12.32;5.15;;;;;;;;;;5959788;29;20066;-74
2022/02/27 05:01:13;;;;;;;13.90;5.15;;;;;;;;;;5959474;29;20459;-73
2022/02/27 05:04:17;;;;;;;12.00;5.82;;;;;;;;;;5959051;29;20058;-74
2022/02/27 05:07:20;;;;;;;11.73;5.10;;;;;;;;;;5960589;29;20623;-74
2022/02/27 05:10:25;;;;;;;11.52;5.18;;;;;;;;;;5958381;29;20047;-74
2022/02/27 05:13:28;;;;;;;14.23;5.93;;;;;;;;;;5958919;29;20134;-74
2022/02/27 05:16:33;;;;;;;12.45;5.60;;;;;;;;;;5960842;29;20051;-74
2022/02/27 05:19:37;;;;;;;12.23;5.47;;;;;;;;;;5959121;29;20055;-74
2022/02/27 05:22:43;;;;;;;14.23;5.25;;;;;;;;;;5957924;29;20055;-74
2022/02/27 05:25:48;;;;;;;15.40;6.05;;;;;;;;;;5958423;29;20406;-75
2022/02/27 05:28:53;;;;;;;12.90;5.35;;;;;;;;;;5958576;29;20051;-74
2022/02/27 05:31:58;;;;;;;11.75;5.55;;;;;;;;;;5958641;29;20057;-75
2022/02/27 05:35:02;;;;;;;13.00;5.60;;;;;;;;;;5961658;29;20051;-75
2022/02/27 05:38:05;;;;;;;13.02;5.18;;;;;;;;;;5962453;29;20091;-75
2022/02/27 05:41:10;;;;;;;13.55;5.53;;;;;;;;;;5960774;29;20054;-74
2022/02/27 05:44:13;;;;;;;14.02;5.30;;;;;;;;;;5963313;29;20105;-75
2022/02/27 05:47:17;;;;;;;12.80;5.72;;;;;;;;;;5964415;29;20425;-75
2022/02/27 05:50:20;;;;;;;13.95;5.32;;;;;;;;;;5963899;29;20417;-75
2022/02/27 05:53:28;;;;;;;12.25;5.18;;;;;;;;;;5963172;29;20442;-74
2022/02/27 05:56:33;;;;;;;16.38;5.88;;;;;;;;;;5963905;29;20050;-74
2022/02/27 05:59:36;;;;;;;13.93;5.87;;;;;;;;;;5964387;29;20053;-73
2022/02/27 06:02:39;;;;;;;13.35;5.20;;;;;;;;;;5963548;29;20092;-74
2022/02/27 06:05:43;;;;;;;11.65;5.40;;;;;;;;;;5962684;29;20116;-73
2022/02/27 06:08:48;;;;;;;14.23;4.97;;;;;;;;;;5964011;29;20054;-73
2022/02/27 06:11:54;;;;;;;12.57;5.93;;;;;;;;;;5963981;29;20055;-74
2022/02/27 06:14:57;;;;;;;11.15;4.88;;;;;;;;;;5962424;29;20119;-74
2022/02/27 06:18:01;;;;;;;15.90;5.35;;;;;;;;;;5962287;29;20057;-74
2022/02/27 06:21:05;;;;;;;10.95;4.97;;;;;;;;;;5947809;29;20055;-73
2022/02/27 06:24:11;;;;;;;13.82;5.43;;;;;;;;;;5963051;29;20100;-75
2022/02/27 06:27:15;;;;;;;15.25;5.68;;;;;;;;;;5962628;29;20082;-72
2022/02/27 06:30:20;;;;;;;13.75;4.88;;;;;;;;;;5963588;29;20510;-73
2022/02/27 06:33:23;;;;;;;12.15;5.10;;;;;;;;;;5962183;29;20528;-73
2022/02/27 06:36:27;;;;;;;9.48;4.40;;;;;;;;;;5962052;29;20046;-73
2022/02/27 06:39:30;;;;;;;13.02;4.93;;;;;;;;;;5961872;29;20570;-74
2022/02/27 06:42:35;;;;;;;13.43;4.88;;;;;;;;;;5963393;29;20065;-73
2022/02/27 06:45:40;;;;;;;13.05;5.35;;;;;;;;;;5962209;29;20051;-72
2022/02/27 06:48:44;;;;;;;9.23;4.47;;;;;;;;;;5961070;29;20050;-75
2022/02/27 06:51:47;;;;;;;10.93;4.80;;;;;;;;;;5963204;29;20200;-74
2022/02/27 06:54:53;;;;;;;;;;;;;;;;;;5962095;29;20537;-74
2022/02/27 06:57:57;;;;;;;12.00;4.72;;;;;;;;;;5961618;29;19925;-75
2022/02/27 07:01:01;;;;;;;10.60;4.88;;;;;;;;;;5961550;29;20050;-75
2022/02/27 07:04:05;;;;;;;10.68;4.70;;;;;;;;;;5962786;29;20061;-75
2022/02/27 07:07:08;;;;;;;11.43;5.13;;;;;;;;;;5960221;29;20495;-74
2022/02/27 07:10:14;;;;;;;11.60;4.85;;;;;;;;;;5960946;29;20051;-73
2022/02/27 07:13:19;;;;;;;10.55;4.55;;;;;;;;;;5961582;29;20534;-74
2022/02/27 07:16:22;;;;;;;10.73;4.78;;;;;;;;;;5946498;29;20348;-74
2022/02/27 07:19:28;;;;;;;;;;;;;;;;;;5960472;29;20047;-73
2022/02/27 07:22:31;;;;;;;10.80;4.43;;;;;;;;;;5961503;29;19925;-73
2022/02/27 07:25:35;;;;;;;8.98;4.10;;;;;;;;;;5962487;29;20058;-73
2022/02/27 07:28:42;;;;;;;8.50;4.47;;;;;;;;;;5960015;29;20458;-73
2022/02/27 07:31:45;;;;;;;11.30;4.40;;;;;;;;;;5960621;29;20051;-73
2022/02/27 07:34:51;;;;;;;13.43;4.82;;;;;;;;;;5962287;29;20738;-75
2022/02/27 07:37:57;;;;;;;10.77;5.13;;;;;;;;;;5961720;29;20050;-73
2022/02/27 07:41:00;;;;;;;12.15;4.55;;;;;;;;;;5959482;29;20085;-74
2022/02/27 07:44:08;;;;;;;10.32;5.22;;;;;;;;;;5961915;29;20058;-73
2022/02/27 07:47:11;;;;;;;;;;;;;;;;;;5962493;29;20051;-73
2022/02/27 07:50:14;;;;;;;10.27;4.55;;;;;;;;;;5960280;29;20341;-72
2022/02/27 07:53:19;;;;;;;9.85;4.38;;;;;;;;;;5961126;29;20093;-71
2022/02/27 07:56:23;;;;;;;14.43;4.00;;;;;;;;;;5961832;29;20051;-73
2022/02/27 07:59:28;;;;;;;11.73;4.40;;;;;;;;;;5960751;29;20051;-72
2022/02/27 08:02:31;;;;;;;11.60;4.88;;;;;;;;;;5960486;29;20051;-72
2022/02/27 08:05:37;;;;;;;9.77;4.28;;;;;;;;;;5960069;29;20561;-71
2022/02/27 08:08:40;;;;;;;11.15;4.65;;;;;;;;;;5944985;29;20055;-71
2022/02/27 08:11:44;;;;;;;10.88;4.25;;;;;;;;;;5958499;29;20101;-71
2022/02/27 08:14:48;;;;;;;9.80;4.40;;;;;;;;;;5961073;29;20055;-71
2022/02/27 08:17:53;;;;;;;14.93;5.22;;;;;;;;;;5961360;29;20130;-71
2022/02/27 08:20:56;;;;;;;11.45;4.88;;;;;;;;;;5958506;29;20502;-72
2022/02/27 08:24:00;;;;;;;13.27;4.10;;;;;;;;;;5960452;29;20055;-72
2022/02/27 08:27:03;;;;;;;13.88;4.68;;;;;;;;;;5961497;29;20051;-71
2022/02/27 08:30:09;;;;;;;10.27;4.45;;;;;;;;;;5960726;29;20132;-72
2022/02/27 08:33:15;;;;;;;8.75;4.57;;;;;;;;;;5959756;29;20054;-71
2022/02/27 08:36:19;;;;;;;10.02;4.22;;;;;;;;;;5960944;29;20098;-72
2022/02/27 08:39:22;;;;;;;10.18;4.47;;;;;;;;;;5959681;29;20062;-72
2022/02/27 08:42:28;;;;;;;10.43;4.20;;;;;;;;;;5958190;29;20043;-71
2022/02/27 08:45:33;;;;;;;9.43;4.35;;;;;;;;;;5959119;29;20058;-72
2022/02/27 08:48:38;;;;;;;11.18;3.95;;;;;;;;;;5959725;29;20055;-71
2022/02/27 08:51:45;;;;;;;9.52;4.30;;;;;;;;;;5960318;29;20388;-71
2022/02/27 08:54:48;;;;;;;9.80;4.13;;;;;;;;;;5959437;29;20478;-71
2022/02/27 08:57:52;;;;;;;7.05;4.00;;;;;;;;;;5959387;29;20051;-71
2022/02/27 09:00:57;;;;;;;7.13;3.75;;;;;;;;;;5960787;29;20062;-71
2022/02/27 09:04:00;;;;;;;8.67;3.77;;;;;;;;;;5958759;29;20051;-72
2022/02/27 09:07:04;;;;;;;14.60;4.25;;;;;;;;;;5962403;29;20054;-72
2022/02/27 09:10:08;;;;;;;10.65;5.18;;;;;;;;;;5965237;29;20483;-74
2022/02/27 09:13:14;;;;;;;6.97;3.42;;;;;;;;;;5964363;29;20057;-73
2022/02/27 09:16:19;;;;;;;8.98;3.55;;;;;;;;;;5963861;29;20137;-73
2022/02/27 09:19:24;;;;;;;10.43;3.70;;;;;;;;;;5965070;29;20513;-74
2022/02/27 09:22:27;;;;;;;11.82;4.13;;;;;;;;;;5963525;29;20061;-72
2022/02/27 09:25:31;;;;;;;8.93;3.55;;;;;;;;;;5963264;29;20130;-73
2022/02/27 09:28:54;;;;;;;9.82;4.00;;;;;;;;;;5962997;29;20051;-73
2022/02/27 09:31:58;;;;;;;7.15;3.58;;;;;;;;;;5963464;29;20054;-73
2022/02/27 09:35:03;;;;;;;9.27;3.50;;;;;;;;;;5964300;29;20157;-73
2022/02/27 09:38:07;;;;;;;10.65;3.83;;;;;;;;;;5961957;29;20135;-73
2022/02/27 09:41:13;;;;;;;;;;;;;;;;;;5965075;29;20463;-72
2022/02/27 09:44:16;;;;;;;12.00;3.75;;;;;;;;;;5964463;29;19948;-72
2022/02/27 09:47:21;;;;;;;11.48;3.60;;;;;;;;;;5963346;29;20057;-71
2022/02/27 09:50:27;;;;;;;7.93;3.95;;;;;;;;;;5963958;29;20062;-72
2022/02/27 09:53:32;;;;;;;;;;;;;;;;;;5963794;29;20384;-72
2022/02/27 09:56:36;;;;;;;8.70;3.30;;;;;;;;;;5963698;29;19925;-73
2022/02/27 09:59:46;;;;;;;11.43;4.70;;;;;;;;;;5961536;29;20050;-72
2022/02/27 10:03:08;;;;;;;8.80;3.38;;;;;;;;;;5963947;29;20058;-73
2022/02/27 10:06:13;;;;;;;10.27;3.67;;;;;;;;;;5962660;29;20086;-73
2022/02/27 10:09:22;;;;;;;7.32;3.40;;;;;;;;;;5962961;29;20522;-72
2022/02/27 10:12:34;;;;;;;9.30;3.75;;;;;;;;;;5962954;29;20058;-73
2022/02/27 10:15:40;;;;;;;7.32;3.47;;;;;;;;;;5964374;29;20066;-74
2022/02/27 10:18:45;;;;;;;8.60;3.67;;;;;;;;;;5963781;29;20109;-73
2022/02/27 10:21:49;;;;;;;9.98;3.80;;;;;;;;;;5962327;29;20057;-73
2022/02/27 10:24:58;;;;;;;8.80;3.72;;;;;;;;;;5962223;29;20062;-73
2022/02/27 10:28:09;;;;;;;7.82;3.53;;;;;;;;;;5962728;29;20055;-73
2022/02/27 10:31:15;;;;;;;7.00;3.20;;;;;;;;;;5961919;29;20108;-73
2022/02/27 10:34:24;;;;;;;7.20;3.20;;;;;;;;;;5960987;29;20191;-74
2022/02/27 10:37:29;;;;;;;8.95;3.67;;;;;;;;;;5963553;29;20047;-73
2022/02/27 10:40:37;;;;;;;9.13;3.25;;;;;;;;;;5962197;29;20070;-74
2022/02/27 10:43:43;;;;;;;8.40;3.80;;;;;;;;;;5960495;29;20061;-73
2022/02/27 10:46:49;;;;;;;5.43;3.05;;;;;;;;;;5961325;29;20042;-74
2022/02/27 10:49:55;;;;;;;8.35;2.97;;;;;;;;;;5963484;29;20046;-73
2022/02/27 10:53:01;;;;;;;7.40;3.15;;;;;;;;;;5961307;29;20054;-73
2022/02/27 10:56:05;;;;;;;6.68;3.33;;;;;;;;;;5960445;29;20057;-73
2022/02/27 10:59:12;;;;;;;6.22;3.03;;;;;;;;;;5963035;29;20050;-73
2022/02/27 11:02:18;;;;;;;10.32;3.08;;;;;;;;;;5962874;29;20078;-73
2022/02/27 11:05:24;;;;;;;8.30;3.47;;;;;;;;;;5959744;29;20084;-73
2022/02/27 11:08:28;;;;;;;8.05;3.08;;;;;;;;;;5962356;29;20411;-73
2022/02/27 11:11:31;;;;;;;12.88;5.85;;;;;;;;;;5961818;29;20128;-73
2022/02/27 11:14:35;;;;;;;8.43;3.00;;;;;;;;;;5960848;29;20055;-73
2022/02/27 11:17:39;;;;;;;8.75;3.28;;;;;;;;;;5961395;29;20047;-74
2022/02/27 11:20:44;;;;;;;6.72;2.90;;;;;;;;;;5962519;29;20050;-73
2022/02/27 11:23:49;;;;;;;8.43;3.75;;;;;;;;;;5962323;29;20047;-73
2022/02/27 11:26:52;;;;;;;6.03;3.10;;;;;;;;;;5960966;29;20057;-74
2022/02/27 11:29:59;;;;;;;9.30;3.90;;;;;;;;;;5960225;29;20046;-71
2022/02/27 11:33:07;;;;;;;9.80;3.40;;;;;;;;;;5961053;29;20051;-72
2022/02/27 11:36:20;;;;;;;7.35;3.22;;;;;;;;;;5960155;29;20053;-73
2022/02/27 11:42:48;;;;;;;23.80;11.65;;;;;;;;;;5962089;29;20053;-72
2022/02/27 11:45:59;;;;;;;7.57;3.75;;;;;;;;;;5960461;29;20050;-73
2022/02/27 11:49:03;;;;;;;6.25;3.30;;;;;;;;;;5961047;29;20075;-73
2022/02/27 11:52:10;;;;;;;7.63;3.10;;;;;;;;;;5959743;29;20071;-72
2022/02/27 11:55:13;;;;;;;11.27;3.30;;;;;;;;;;5962079;29;20051;-72
2022/02/27 11:58:20;;;;;;;8.90;3.70;;;;;;;;;;5960399;29;20055;-73
2022/02/27 12:01:35;;;;;;;8.73;3.58;;;;;;;;;;5958812;29;20498;-73
2022/02/27 12:04:48;;;;;;;11.68;3.95;;;;;;;;;;5960125;29;20513;-71
2022/02/27 12:08:06;;;;;;;5.82;3.42;;;;;;;;;;5960218;29;20067;-73
2022/02/27 12:11:30;;;;;;;8.60;3.08;;;;;;;;;;5958740;29;20070;-72
2022/02/27 12:14:35;;;;;;;8.02;3.17;;;;;;;;;;5958667;29;20494;-73
2022/02/27 12:17:57;;;;;;;5.65;2.83;;;;;;;;;;5960043;29;20055;-72
2022/02/27 12:21:02;;;;;;;7.13;2.90;;;;;;;;;;5961305;29;20055;-72
2022/02/27 12:24:07;;;;;;;7.05;2.95;;;;;;;;;;5961009;29;20070;-73
2022/02/27 12:27:14;;;;;;;8.02;3.83;;;;;;;;;;5958593;29;20563;-72
2022/02/27 12:30:19;;;;;;;11.95;3.47;;;;;;;;;;5945696;29;20112;-72
2022/02/27 12:33:28;;;;;;;7.50;3.17;;;;;;;;;;5960378;29;20431;-73
2022/02/27 12:36:36;;;;;;;6.88;3.30;;;;;;;;;;5960021;29;20447;-73
2022/02/27 12:39:41;;;;;;;7.18;3.13;;;;;;;;;;5960522;29;20129;-72
2022/02/27 12:42:48;;;;;;;5.53;3.00;;;;;;;;;;5960994;29;20046;-71
2022/02/27 12:45:55;;;;;;;7.55;3.72;;;;;;;;;;5961729;29;22055;-71
2022/02/27 12:52:21;;;;;;;8.45;3.55;;;;;;;;;;5960738;29;20080;-73
2022/02/27 12:55:24;;;;;;;6.72;3.15;;;;;;;;;;5959864;29;20055;-71
2022/02/27 12:58:40;;;;;;;6.40;3.50;;;;;;;;;;5959227;29;20050;-72
2022/02/27 13:01:44;;;;;;;5.95;3.50;;;;;;;;;;5958116;29;20063;-72
2022/02/27 13:04:48;;;;;;;5.20;3.22;;;;;;;;;;5959588;29;20180;-72
2022/02/27 13:08:01;;;;;;;10.05;3.65;;;;;;;;;;5960581;29;20070;-73
2022/02/27 13:11:04;;;;;;;6.63;3.05;;;;;;;;;;5959570;29;20055;-71
2022/02/27 13:14:11;;;;;;;23.25;10.95;;;;;;;;;;5958885;29;20047;-70
2022/02/27 13:17:18;;;;;;;9.63;4.18;;;;;;;;;;5960810;29;20059;-72
2022/02/27 13:20:23;;;;;;;7.10;3.63;;;;;;;;;;5960317;29;20563;-70
2022/02/27 13:23:27;;;;;;;8.98;3.10;;;;;;;;;;5959100;29;20050;-70
2022/02/27 13:26:41;;;;;;;7.32;3.35;;;;;;;;;;5959306;29;20047;-71
2022/02/27 13:29:49;;;;;;;7.32;3.15;;;;;;;;;;5960703;29;20133;-71
2022/02/27 13:32:54;;;;;;;8.75;3.45;;;;;;;;;;5957928;29;20410;-70
2022/02/27 13:35:57;;;;;;;;;;;;;;;;;;5959151;29;20145;-72
2022/02/27 13:39:05;;;;;;;7.47;3.90;;;;;;;;;;5960633;29;19925;-71
2022/02/27 13:42:08;;;;;;;8.40;3.97;;;;;;;;;;5960516;29;20047;-71
2022/02/27 13:45:12;;;;;;;6.50;3.20;;;;;;;;;;5958929;29;20047;-69
2022/02/27 13:48:25;;;;;;;8.30;3.35;;;;;;;;;;5960287;29;20057;-71
2022/02/27 13:51:31;;;;;;;;;;;;;;;;;;5960586;29;20399;-71
2022/02/27 13:54:43;;;;;;;5.05;2.88;;;;;;;;;;5962170;29;19951;-71
2022/02/27 13:57:46;;;;;;;6.32;3.70;;;;;;;;;;5963221;29;20054;-70
2022/02/27 14:00:50;;;;;;;6.00;2.90;;;;;;;;;;5963114;29;20055;-71
2022/02/27 14:04:04;;;;;;;6.25;3.13;;;;;;;;;;5962777;29;20047;-71
2022/02/27 14:07:16;;;;;;;5.78;3.30;;;;;;;;;;5961183;29;20073;-71
2022/02/27 14:10:23;;;;;;;10.20;3.70;;;;;;;;;;5962324;29;20051;-72
2022/02/27 14:13:26;;;;;;;8.95;3.35;;;;;;;;;;5962703;29;20123;-71
2022/02/27 14:16:30;;;;;;;7.03;2.90;;;;;;;;;;5961952;29;20039;-72
2022/02/27 14:19:35;;;;;;;6.25;3.05;;;;;;;;;;5961669;29;20057;-72
2022/02/27 14:22:39;;;;;;;6.40;3.28;;;;;;;;;;5962535;29;20046;-73
2022/02/27 14:25:49;;;;;;;5.78;3.00;;;;;;;;;;5962238;29;20070;-73
2022/02/27 14:28:54;;;;;;;7.88;2.83;;;;;;;;;;5962039;29;20051;-73
2022/02/27 14:31:57;;;;;;;6.75;2.83;;;;;;;;;;5963234;29;20055;-73
2022/02/27 14:35:04;;;;;;;7.05;3.20;;;;;;;;;;5963767;29;20545;-74
2022/02/27 14:38:08;;;;;;;6.30;3.50;;;;;;;;;;5961420;29;20171;-73
2022/02/27 14:41:13;;;;;;;7.50;2.88;;;;;;;;;;5961174;29;20047;-73
2022/02/27 14:44:18;;;;;;;8.35;2.85;;;;;;;;;;5961985;29;20057;-71
2022/02/27 14:47:24;;;;;;;10.68;3.70;;;;;;;;;;5962991;29;20476;-71
2022/02/27 14:50:31;;;;;;;8.30;3.35;;;;;;;;;;5960332;29;20455;-72
2022/02/27 14:53:34;;;;;;;8.30;3.20;;;;;;;;;;5961565;29;20596;-71
2022/02/27 14:56:40;;;;;;;5.95;2.95;;;;;;;;;;5961711;29;20058;-71
2022/02/27 14:59:43;;;;;;;5.30;3.05;;;;;;;;;;5960915;29;20059;-71
2022/02/27 15:02:47;;;;;;;7.88;3.30;;;;;;;;;;5959859;29;20047;-72
2022/02/27 15:05:53;;;;;;;;;;;;;;;;;;5961875;29;20055;-72
2022/02/27 15:08:58;;;;;;;7.10;2.60;;;;;;;;;;5962424;29;19925;-72
2022/02/27 15:12:05;;;;;;;5.07;2.83;;;;;;;;;;5961417;29;20058;-72
2022/02/27 15:15:08;;;;;;;7.05;3.33;;;;;;;;;;5961204;29;20047;-72
2022/02/27 15:18:13;;;;;;;8.07;2.78;;;;;;;;;;5962671;29;20051;-71
2022/02/27 15:21:17;;;;;;;6.13;3.03;;;;;;;;;;5960235;29;20045;-73
2022/02/27 15:24:22;;;;;;;7.68;3.00;;;;;;;;;;5961804;29;20046;-72
2022/02/27 15:27:27;;;;;;;7.55;3.00;;;;;;;;;;5962726;29;20055;-74
2022/02/27 15:30:33;;;;;;;7.40;2.60;;;;;;;;;;5960818;29;20112;-74
2022/02/27 15:33:41;;;;;;;5.40;2.75;;;;;;;;;;5959521;29;20549;-74
2022/02/27 15:36:45;;;;;;;6.80;2.83;;;;;;;;;;5962098;29;20055;-73
2022/02/27 15:39:49;;;;;;;7.35;2.90;;;;;;;;;;5962071;29;20065;-73
2022/02/27 15:42:54;;;;;;;6.35;2.38;;;;;;;;;;5959624;29;20084;-73
2022/02/27 15:45:57;;;;;;;6.10;3.38;;;;;;;;;;5960070;29;20482;-73
2022/02/27 15:49:03;;;;;;;7.70;2.70;;;;;;;;;;5961873;29;20602;-73
2022/02/27 15:52:08;;;;;;;;;;;;;;;;;;5960892;29;20135;-73
2022/02/27 15:55:15;;;;;;;6.35;2.67;;;;;;;;;;5958949;29;19997;-73
2022/02/27 15:58:18;;;;;;;7.70;3.03;;;;;;;;;;5960294;29;20055;-73
2022/02/27 16:01:23;;;;;;;5.85;3.50;;;;;;;;;;5960337;29;20505;-72
2022/02/27 16:04:29;;;;;;;8.07;2.90;;;;;;;;;;5960405;29;20050;-74
2022/02/27 16:07:34;;;;;;;;;;;;;;;;;;5961233;29;20067;-74
2022/02/27 16:10:41;;;;;;;6.45;2.72;;;;;;;;;;5961468;29;20073;-74
2022/02/27 16:13:48;;;;;;;5.10;2.90;;;;;;;;;;5959575;29;20043;-74
2022/02/27 16:16:55;;;;;;;9.73;3.38;;;;;;;;;;5960473;29;20509;-73
2022/02/27 16:19:59;;;;;;;6.95;3.22;;;;;;;;;;5961321;29;20058;-74
2022/02/27 16:23:05;;;;;;;8.75;2.80;;;;;;;;;;5959981;29;20108;-73
2022/02/27 16:26:10;;;;;;;5.95;3.10;;;;;;;;;;5960391;29;20525;-73
2022/02/27 16:29:14;;;;;;;8.93;2.67;;;;;;;;;;5959109;29;20087;-72
2022/02/27 16:32:18;;;;;;;5.75;3.00;;;;;;;;;;5961176;29;20509;-72
2022/02/27 16:35:21;;;;;;;8.40;3.42;;;;;;;;;;5959145;29;20483;-73
2022/02/27 16:38:26;;;;;;;6.57;2.70;;;;;;;;;;5959888;29;20061;-73
2022/02/27 16:41:32;;;;;;;6.85;3.00;;;;;;;;;;5959781;29;20129;-73
2022/02/27 16:44:36;;;;;;;7.45;3.28;;;;;;;;;;5959666;29;20050;-72
2022/02/27 16:47:39;;;;;;;9.43;3.30;;;;;;;;;;5959282;29;20051;-73
2022/02/27 16:50:43;;;;;;;8.80;3.30;;;;;;;;;;5960552;29;20406;-73
2022/02/27 16:53:47;;;;;;;9.60;2.92;;;;;;;;;;5960932;29;20524;-76
2022/02/27 16:56:52;;;;;;;5.90;2.58;;;;;;;;;;5960059;29;20046;-72
2022/02/27 16:59:55;;;;;;;8.57;2.78;;;;;;;;;;5958506;29;20319;-72
2022/02/27 17:03:01;;;;;;;7.57;3.10;;;;;;;;;;5960698;29;20046;-73
2022/02/27 17:06:04;;;;;;;9.80;3.10;;;;;;;;;;5959241;29;20433;-73
2022/02/27 17:09:08;;;;;;;7.22;3.10;;;;;;;;;;5959430;29;20054;-73
2022/02/27 17:12:12;;;;;;;11.48;3.10;;;;;;;;;;5959162;29;20126;-75
2022/02/27 17:15:16;;;;;;;6.30;3.05;;;;;;;;;;5960854;29;20051;-74
2022/02/27 17:18:19;;;;;;;7.20;2.92;;;;;;;;;;5958104;29;20110;-74
2022/02/27 17:21:22;;;;;;;7.63;3.58;;;;;;;;;;5959809;29;20555;-72
2022/02/27 17:24:26;;;;;;;10.13;3.50;;;;;;;;;;5960526;29;20580;-72
2022/02/27 17:27:31;;;;;;;9.52;3.42;;;;;;;;;;5961257;29;20058;-72
2022/02/27 17:30:34;;;;;;;6.82;3.38;;;;;;;;;;5963423;29;20058;-72
2022/02/27 17:33:39;;;;;;;;;;;;;;;;;;5963851;29;20058;-71
2022/02/27 17:36:43;;;;;;;8.40;3.97;;;;;;;;;;5964399;29;19925;-72
2022/02/27 17:39:48;;;;;;;9.48;3.75;;;;;;;;;;5963508;29;20054;-73
2022/02/27 17:42:54;;;;;;;9.88;3.50;;;;;;;;;;5962622;29;20055;-71
2022/02/27 17:45:57;;;;;;;9.45;3.70;;;;;;;;;;5963207;29;20055;-72
2022/02/27 17:49:00;;;;;;;8.88;3.22;;;;;;;;;;5962342;29;20050;-72
2022/02/27 17:52:04;;;;;;;11.80;4.13;;;;;;;;;;5963388;29;20054;-72
2022/02/27 17:55:07;;;;;;;9.15;3.65;;;;;;;;;;5964251;29;20058;-72
2022/02/27 17:58:12;;;;;;;11.35;3.40;;;;;;;;;;5963980;29;20055;-72
2022/02/27 18:01:17;;;;;;;10.05;3.78;;;;;;;;;;5963044;29;20063;-72
2022/02/27 18:04:23;;;;;;;53.65;22.60;;;;;;;;;;5962671;29;20121;-72
2022/02/27 18:07:26;;;;;;;9.43;3.70;;;;;;;;;;5963862;29;20083;-72
2022/02/27 18:10:30;;;;;;;9.40;3.33;;;;;;;;;;5963043;29;20047;-72
2022/02/27 18:13:38;;;;;;;8.05;3.15;;;;;;;;;;5962745;29;20054;-72
2022/02/27 18:16:41;;;;;;;7.55;3.13;;;;;;;;;;5963827;29;20495;-71
2022/02/27 18:19:49;;;;;;;11.95;4.38;;;;;;;;;;5962219;29;20418;-71
2022/02/27 18:22:53;;;;;;;9.70;3.60;;;;;;;;;;5962486;29;20061;-72
2022/02/27 18:25:56;;;;;;;8.80;3.90;;;;;;;;;;5962065;29;20054;-72
2022/02/27 18:29:01;;;;;;;9.68;3.92;;;;;;;;;;5963441;29;20107;-72
2022/02/27 18:32:07;;;;;;;8.20;3.50;;;;;;;;;;5961385;29;20067;-72
2022/02/27 18:35:10;;;;;;;7.95;3.90;;;;;;;;;;5961177;29;20069;-72